sensor_id;sensor_type;location;lat;lon;timestamp;P1;durP1;ratioP1;P2;durP2;ratioP2
2996;SDS011;1508;48.744;9.110;2022-08-01T00:01:17;2.67;;;2.23;;
2996;SDS011;1508;48.744;9.110;2022-08-01T00:04:03;3.30;;;2.40;;
2996;SDS011;1508;48.744;9.110;2022-08-01T00:06:49;4.22;;;2.60;;
2996;SDS011;1508;48.744;9.110;2022-08-01T00:09:35;2.60;;;2.20;;
2996;SDS011;1508;48.744;9.110;2022-08-01T00:12:20;3.60;;;2.53;;
2996;SDS011;1508;48.744;9.110;2022-08-01T00:15:07;2.88;;;2.35;;
2996;SDS011;1508;48.744;9.110;2022-08-01T00:17:55;4.28;;;2.40;;
2996;SDS011;1508;48.744;9.110;2022-08-01T00:20:41;2.67;;;2.27;;
2996;SDS011;1508;48.744;9.110;2022-08-01T00:23:27;3.50;;;2.20;;
2996;SDS011;1508;48.744;9.110;2022-08-01T00:26:13;2.70;;;2.50;;
2996;SDS011;1508;48.744;9.110;2022-08-01T00:28:59;4.05;;;2.45;;
2996;SDS011;1508;48.744;9.110;2022-08-01T00:31:45;3.55;;;2.50;;
2996;SDS011;1508;48.744;9.110;2022-08-01T00:34:31;3.20;;;2.80;;
2996;SDS011;1508;48.744;9.110;2022-08-01T00:37:17;3.83;;;2.90;;
2996;SDS011;1508;48.744;9.110;2022-08-01T00:40:03;2.80;;;2.50;;
2996;SDS011;1508;48.744;9.110;2022-08-01T00:42:49;3.65;;;2.60;;
2996;SDS011;1508;48.744;9.110;2022-08-01T00:45:35;5.00;;;2.50;;
2996;SDS011;1508;48.744;9.110;2022-08-01T00:48:21;3.17;;;2.50;;
2996;SDS011;1508;48.744;9.110;2022-08-01T00:51:07;3.78;;;2.90;;
2996;SDS011;1508;48.744;9.110;2022-08-01T00:53:53;3.60;;;2.50;;
2996;SDS011;1508;48.744;9.110;2022-08-01T00:56:39;5.75;;;2.85;;
2996;SDS011;1508;48.744;9.110;2022-08-01T00:59:26;4.15;;;2.65;;
2996;SDS011;1508;48.744;9.110;2022-08-01T01:02:12;6.07;;;2.70;;
2996;SDS011;1508;48.744;9.110;2022-08-01T01:04:58;3.80;;;2.85;;
2996;SDS011;1508;48.744;9.110;2022-08-01T01:07:48;3.90;;;2.60;;
2996;SDS011;1508;48.744;9.110;2022-08-01T01:11:03;3.08;;;2.70;;
2996;SDS011;1508;48.744;9.110;2022-08-01T01:14:04;2.77;;;2.50;;
2996;SDS011;1508;48.744;9.110;2022-08-01T01:16:55;3.13;;;2.83;;
2996;SDS011;1508;48.744;9.110;2022-08-01T01:19:47;3.50;;;3.00;;
2996;SDS011;1508;48.744;9.110;2022-08-01T01:22:42;3.47;;;3.03;;
2996;SDS011;1508;48.744;9.110;2022-08-01T01:31:11;3.88;;;2.97;;
2996;SDS011;1508;48.744;9.110;2022-08-01T01:33:58;4.20;;;3.00;;
2996;SDS011;1508;48.744;9.110;2022-08-01T01:36:48;3.80;;;3.00;;
2996;SDS011;1508;48.744;9.110;2022-08-01T01:39:37;3.95;;;2.92;;
2996;SDS011;1508;48.744;9.110;2022-08-01T01:42:26;3.55;;;2.90;;
2996;SDS011;1508;48.744;9.110;2022-08-01T01:45:12;5.07;;;2.93;;
2996;SDS011;1508;48.744;9.110;2022-08-01T01:47:59;3.83;;;2.63;;
2996;SDS011;1508;48.744;9.110;2022-08-01T01:50:47;5.05;;;3.10;;
2996;SDS011;1508;48.744;9.110;2022-08-01T01:53:34;4.47;;;2.70;;
2996;SDS011;1508;48.744;9.110;2022-08-01T01:56:21;3.45;;;2.90;;
2996;SDS011;1508;48.744;9.110;2022-08-01T01:59:09;4.97;;;2.80;;
2996;SDS011;1508;48.744;9.110;2022-08-01T02:01:56;4.13;;;3.05;;
2996;SDS011;1508;48.744;9.110;2022-08-01T02:04:45;5.30;;;3.00;;
2996;SDS011;1508;48.744;9.110;2022-08-01T02:07:32;6.15;;;3.08;;
2996;SDS011;1508;48.744;9.110;2022-08-01T02:10:19;5.38;;;2.90;;
2996;SDS011;1508;48.744;9.110;2022-08-01T02:13:06;4.60;;;3.15;;
2996;SDS011;1508;48.744;9.110;2022-08-01T02:15:52;3.80;;;3.00;;
2996;SDS011;1508;48.744;9.110;2022-08-01T02:18:38;4.25;;;3.03;;
2996;SDS011;1508;48.744;9.110;2022-08-01T02:21:32;3.28;;;2.97;;
2996;SDS011;1508;48.744;9.110;2022-08-01T02:24:40;3.40;;;2.72;;
2996;SDS011;1508;48.744;9.110;2022-08-01T02:27:28;3.83;;;3.10;;
2996;SDS011;1508;48.744;9.110;2022-08-01T02:30:28;5.00;;;3.17;;
2996;SDS011;1508;48.744;9.110;2022-08-01T02:33:19;3.80;;;3.13;;
2996;SDS011;1508;48.744;9.110;2022-08-01T02:36:09;3.53;;;3.13;;
2996;SDS011;1508;48.744;9.110;2022-08-01T02:38:57;3.60;;;2.90;;
2996;SDS011;1508;48.744;9.110;2022-08-01T02:41:47;3.70;;;3.10;;
2996;SDS011;1508;48.744;9.110;2022-08-01T02:44:36;6.97;;;3.20;;
2996;SDS011;1508;48.744;9.110;2022-08-01T02:47:25;4.28;;;3.03;;
2996;SDS011;1508;48.744;9.110;2022-08-01T02:50:16;4.60;;;3.20;;
2996;SDS011;1508;48.744;9.110;2022-08-01T02:53:03;4.55;;;3.10;;
2996;SDS011;1508;48.744;9.110;2022-08-01T02:55:51;5.47;;;3.00;;
2996;SDS011;1508;48.744;9.110;2022-08-01T02:58:39;3.90;;;3.10;;
2996;SDS011;1508;48.744;9.110;2022-08-01T03:01:25;3.20;;;2.90;;
2996;SDS011;1508;48.744;9.110;2022-08-01T03:04:11;3.77;;;3.10;;
2996;SDS011;1508;48.744;9.110;2022-08-01T03:07:00;3.78;;;3.40;;
2996;SDS011;1508;48.744;9.110;2022-08-01T03:09:48;3.92;;;3.40;;
2996;SDS011;1508;48.744;9.110;2022-08-01T03:12:35;6.80;;;3.50;;
2996;SDS011;1508;48.744;9.110;2022-08-01T03:15:24;4.68;;;3.28;;
2996;SDS011;1508;48.744;9.110;2022-08-01T03:18:12;3.27;;;2.50;;
2996;SDS011;1508;48.744;9.110;2022-08-01T03:21:00;5.55;;;3.80;;
2996;SDS011;1508;48.744;9.110;2022-08-01T03:23:47;5.10;;;3.30;;
2996;SDS011;1508;48.744;9.110;2022-08-01T03:26:36;3.85;;;3.20;;
2996;SDS011;1508;48.744;9.110;2022-08-01T03:29:25;3.70;;;3.30;;
2996;SDS011;1508;48.744;9.110;2022-08-01T03:32:12;3.63;;;3.20;;
2996;SDS011;1508;48.744;9.110;2022-08-01T03:35:00;4.75;;;3.10;;
2996;SDS011;1508;48.744;9.110;2022-08-01T03:37:47;5.35;;;3.70;;
2996;SDS011;1508;48.744;9.110;2022-08-01T03:40:38;4.10;;;3.35;;
2996;SDS011;1508;48.744;9.110;2022-08-01T03:43:30;4.97;;;3.33;;
2996;SDS011;1508;48.744;9.110;2022-08-01T03:46:22;3.90;;;3.20;;
2996;SDS011;1508;48.744;9.110;2022-08-01T03:49:18;6.38;;;3.20;;
2996;SDS011;1508;48.744;9.110;2022-08-01T03:52:08;3.92;;;3.00;;
2996;SDS011;1508;48.744;9.110;2022-08-01T03:54:55;3.25;;;2.90;;
2996;SDS011;1508;48.744;9.110;2022-08-01T03:57:43;3.87;;;3.10;;
2996;SDS011;1508;48.744;9.110;2022-08-01T04:00:31;3.78;;;2.83;;
2996;SDS011;1508;48.744;9.110;2022-08-01T04:03:17;5.68;;;3.10;;
2996;SDS011;1508;48.744;9.110;2022-08-01T04:06:04;3.20;;;2.90;;
2996;SDS011;1508;48.744;9.110;2022-08-01T04:08:51;3.20;;;2.90;;
2996;SDS011;1508;48.744;9.110;2022-08-01T04:11:37;5.90;;;3.40;;
2996;SDS011;1508;48.744;9.110;2022-08-01T04:14:23;5.00;;;3.38;;
2996;SDS011;1508;48.744;9.110;2022-08-01T04:17:09;3.80;;;3.13;;
2996;SDS011;1508;48.744;9.110;2022-08-01T04:19:55;6.75;;;3.30;;
2996;SDS011;1508;48.744;9.110;2022-08-01T04:22:41;3.50;;;2.80;;
2996;SDS011;1508;48.744;9.110;2022-08-01T04:25:34;4.28;;;2.75;;
2996;SDS011;1508;48.744;9.110;2022-08-01T04:28:22;4.40;;;3.60;;
2996;SDS011;1508;48.744;9.110;2022-08-01T04:31:08;4.03;;;2.90;;
2996;SDS011;1508;48.744;9.110;2022-08-01T04:33:55;3.80;;;3.15;;
2996;SDS011;1508;48.744;9.110;2022-08-01T04:36:44;4.15;;;3.00;;
2996;SDS011;1508;48.744;9.110;2022-08-01T04:39:32;3.20;;;2.80;;
2996;SDS011;1508;48.744;9.110;2022-08-01T04:42:20;3.67;;;2.72;;
2996;SDS011;1508;48.744;9.110;2022-08-01T04:45:07;4.10;;;3.22;;
2996;SDS011;1508;48.744;9.110;2022-08-01T04:47:54;2.92;;;2.55;;
2996;SDS011;1508;48.744;9.110;2022-08-01T04:50:41;4.07;;;2.97;;
2996;SDS011;1508;48.744;9.110;2022-08-01T04:53:27;4.22;;;3.00;;
2996;SDS011;1508;48.744;9.110;2022-08-01T04:56:13;4.65;;;2.90;;
2996;SDS011;1508;48.744;9.110;2022-08-01T04:58:59;3.72;;;2.97;;
2996;SDS011;1508;48.744;9.110;2022-08-01T05:01:49;2.80;;;2.50;;
2996;SDS011;1508;48.744;9.110;2022-08-01T05:04:35;3.50;;;2.50;;
2996;SDS011;1508;48.744;9.110;2022-08-01T05:07:22;3.25;;;2.72;;
2996;SDS011;1508;48.744;9.110;2022-08-01T05:10:08;2.97;;;2.70;;
2996;SDS011;1508;48.744;9.110;2022-08-01T05:12:54;3.53;;;2.90;;
2996;SDS011;1508;48.744;9.110;2022-08-01T05:15:40;3.03;;;2.20;;
2996;SDS011;1508;48.744;9.110;2022-08-01T05:18:26;3.85;;;2.75;;
2996;SDS011;1508;48.744;9.110;2022-08-01T05:21:12;2.95;;;2.60;;
2996;SDS011;1508;48.744;9.110;2022-08-01T05:23:57;3.67;;;2.78;;
2996;SDS011;1508;48.744;9.110;2022-08-01T05:26:43;4.38;;;2.20;;
2996;SDS011;1508;48.744;9.110;2022-08-01T05:29:29;3.25;;;2.33;;
2996;SDS011;1508;48.744;9.110;2022-08-01T05:32:16;3.20;;;2.50;;
2996;SDS011;1508;48.744;9.110;2022-08-01T05:35:02;2.60;;;2.10;;
2996;SDS011;1508;48.744;9.110;2022-08-01T05:37:48;3.33;;;2.60;;
2996;SDS011;1508;48.744;9.110;2022-08-01T05:40:35;5.00;;;2.72;;
2996;SDS011;1508;48.744;9.110;2022-08-01T05:43:21;2.47;;;2.28;;
2996;SDS011;1508;48.744;9.110;2022-08-01T05:46:06;3.35;;;2.58;;
2996;SDS011;1508;48.744;9.110;2022-08-01T05:48:52;3.95;;;2.30;;
2996;SDS011;1508;48.744;9.110;2022-08-01T05:51:38;2.67;;;2.00;;
2996;SDS011;1508;48.744;9.110;2022-08-01T05:54:24;3.50;;;2.10;;
2996;SDS011;1508;48.744;9.110;2022-08-01T05:57:10;4.28;;;2.10;;
2996;SDS011;1508;48.744;9.110;2022-08-01T05:59:56;2.58;;;2.25;;
2996;SDS011;1508;48.744;9.110;2022-08-01T06:02:42;5.45;;;2.40;;
2996;SDS011;1508;48.744;9.110;2022-08-01T06:05:28;3.95;;;1.80;;
2996;SDS011;1508;48.744;9.110;2022-08-01T06:08:14;3.50;;;2.25;;
2996;SDS011;1508;48.744;9.110;2022-08-01T06:11:00;3.00;;;2.05;;
2996;SDS011;1508;48.744;9.110;2022-08-01T06:13:46;2.13;;;1.80;;
2996;SDS011;1508;48.744;9.110;2022-08-01T06:16:32;3.50;;;1.88;;
2996;SDS011;1508;48.744;9.110;2022-08-01T06:19:18;4.03;;;2.00;;
2996;SDS011;1508;48.744;9.110;2022-08-01T06:22:03;3.25;;;1.80;;
2996;SDS011;1508;48.744;9.110;2022-08-01T06:24:49;3.60;;;1.70;;
2996;SDS011;1508;48.744;9.110;2022-08-01T06:27:35;2.30;;;1.80;;
2996;SDS011;1508;48.744;9.110;2022-08-01T06:30:21;2.20;;;1.65;;
2996;SDS011;1508;48.744;9.110;2022-08-01T06:33:07;2.30;;;1.80;;
2996;SDS011;1508;48.744;9.110;2022-08-01T06:35:53;3.25;;;1.90;;
2996;SDS011;1508;48.744;9.110;2022-08-01T06:38:39;2.45;;;1.58;;
2996;SDS011;1508;48.744;9.110;2022-08-01T06:41:25;3.13;;;1.60;;
2996;SDS011;1508;48.744;9.110;2022-08-01T06:44:11;3.92;;;1.80;;
2996;SDS011;1508;48.744;9.110;2022-08-01T06:46:57;3.03;;;1.40;;
2996;SDS011;1508;48.744;9.110;2022-08-01T06:49:43;2.38;;;1.77;;
2996;SDS011;1508;48.744;9.110;2022-08-01T06:52:28;2.20;;;1.60;;
2996;SDS011;1508;48.744;9.110;2022-08-01T06:55:14;2.50;;;1.70;;
2996;SDS011;1508;48.744;9.110;2022-08-01T06:58:00;2.05;;;1.70;;
2996;SDS011;1508;48.744;9.110;2022-08-01T07:00:46;3.10;;;1.87;;
2996;SDS011;1508;48.744;9.110;2022-08-01T07:03:32;1.92;;;1.52;;
2996;SDS011;1508;48.744;9.110;2022-08-01T07:06:19;1.92;;;1.52;;
2996;SDS011;1508;48.744;9.110;2022-08-01T07:09:04;2.30;;;1.60;;
2996;SDS011;1508;48.744;9.110;2022-08-01T07:11:50;2.70;;;1.73;;
2996;SDS011;1508;48.744;9.110;2022-08-01T07:14:36;3.35;;;1.95;;
2996;SDS011;1508;48.744;9.110;2022-08-01T07:17:22;2.30;;;1.55;;
2996;SDS011;1508;48.744;9.110;2022-08-01T07:20:09;2.85;;;1.70;;
2996;SDS011;1508;48.744;9.110;2022-08-01T07:22:56;2.10;;;1.60;;
2996;SDS011;1508;48.744;9.110;2022-08-01T07:25:42;4.60;;;2.00;;
2996;SDS011;1508;48.744;9.110;2022-08-01T07:28:28;2.97;;;2.00;;
2996;SDS011;1508;48.744;9.110;2022-08-01T07:31:14;3.20;;;1.83;;
2996;SDS011;1508;48.744;9.110;2022-08-01T07:34:00;2.40;;;1.92;;
2996;SDS011;1508;48.744;9.110;2022-08-01T07:36:46;2.80;;;1.90;;
2996;SDS011;1508;48.744;9.110;2022-08-01T07:39:32;3.75;;;1.90;;
2996;SDS011;1508;48.744;9.110;2022-08-01T07:42:18;2.40;;;2.10;;
2996;SDS011;1508;48.744;9.110;2022-08-01T07:45:04;4.55;;;2.00;;
2996;SDS011;1508;48.744;9.110;2022-08-01T07:47:50;2.80;;;2.20;;
2996;SDS011;1508;48.744;9.110;2022-08-01T07:50:36;3.33;;;2.40;;
2996;SDS011;1508;48.744;9.110;2022-08-01T07:53:22;5.10;;;2.43;;
2996;SDS011;1508;48.744;9.110;2022-08-01T07:56:08;2.55;;;2.00;;
2996;SDS011;1508;48.744;9.110;2022-08-01T07:58:54;3.40;;;2.07;;
2996;SDS011;1508;48.744;9.110;2022-08-01T08:01:39;2.90;;;2.20;;
2996;SDS011;1508;48.744;9.110;2022-08-01T08:04:26;2.90;;;2.40;;
2996;SDS011;1508;48.744;9.110;2022-08-01T08:07:12;3.20;;;2.30;;
2996;SDS011;1508;48.744;9.110;2022-08-01T08:09:58;2.72;;;2.35;;
2996;SDS011;1508;48.744;9.110;2022-08-01T08:12:44;4.60;;;2.65;;
2996;SDS011;1508;48.744;9.110;2022-08-01T08:15:30;2.87;;;2.60;;
2996;SDS011;1508;48.744;9.110;2022-08-01T08:18:15;2.47;;;2.28;;
2996;SDS011;1508;48.744;9.110;2022-08-01T08:21:01;3.20;;;2.60;;
2996;SDS011;1508;48.744;9.110;2022-08-01T08:23:47;5.90;;;2.53;;
2996;SDS011;1508;48.744;9.110;2022-08-01T08:26:33;2.65;;;2.45;;
2996;SDS011;1508;48.744;9.110;2022-08-01T08:29:19;3.30;;;2.90;;
2996;SDS011;1508;48.744;9.110;2022-08-01T08:32:06;2.60;;;2.30;;
2996;SDS011;1508;48.744;9.110;2022-08-01T08:34:52;3.78;;;2.80;;
2996;SDS011;1508;48.744;9.110;2022-08-01T08:37:38;4.90;;;2.83;;
2996;SDS011;1508;48.744;9.110;2022-08-01T08:40:24;2.78;;;2.55;;
2996;SDS011;1508;48.744;9.110;2022-08-01T08:43:15;3.50;;;3.20;;
2996;SDS011;1508;48.744;9.110;2022-08-01T08:46:01;3.65;;;2.92;;
2996;SDS011;1508;48.744;9.110;2022-08-01T08:48:48;2.75;;;2.22;;
2996;SDS011;1508;48.744;9.110;2022-08-01T08:51:35;3.50;;;2.55;;
2996;SDS011;1508;48.744;9.110;2022-08-01T08:54:24;3.92;;;2.80;;
2996;SDS011;1508;48.744;9.110;2022-08-01T08:57:13;2.90;;;2.58;;
2996;SDS011;1508;48.744;9.110;2022-08-01T08:59:59;2.97;;;2.60;;
2996;SDS011;1508;48.744;9.110;2022-08-01T09:02:46;4.00;;;2.40;;
2996;SDS011;1508;48.744;9.110;2022-08-01T09:05:33;4.10;;;3.30;;
2996;SDS011;1508;48.744;9.110;2022-08-01T09:08:19;3.60;;;3.30;;
2996;SDS011;1508;48.744;9.110;2022-08-01T09:11:04;4.22;;;3.20;;
2996;SDS011;1508;48.744;9.110;2022-08-01T09:14:13;3.92;;;3.30;;
2996;SDS011;1508;48.744;9.110;2022-08-01T09:17:01;5.85;;;3.50;;
2996;SDS011;1508;48.744;9.110;2022-08-01T09:19:53;3.97;;;3.10;;
2996;SDS011;1508;48.744;9.110;2022-08-01T09:22:40;3.40;;;3.10;;
2996;SDS011;1508;48.744;9.110;2022-08-01T09:25:26;4.10;;;3.30;;
2996;SDS011;1508;48.744;9.110;2022-08-01T09:28:11;5.23;;;4.30;;
2996;SDS011;1508;48.744;9.110;2022-08-01T09:30:58;4.45;;;3.95;;
2996;SDS011;1508;48.744;9.110;2022-08-01T09:34:23;6.50;;;4.30;;
2996;SDS011;1508;48.744;9.110;2022-08-01T09:36:58;4.55;;;3.92;;
2996;SDS011;1508;48.744;9.110;2022-08-01T09:39:44;5.60;;;4.30;;
2996;SDS011;1508;48.744;9.110;2022-08-01T09:42:39;3.80;;;3.50;;
2996;SDS011;1508;48.744;9.110;2022-08-01T09:45:32;4.25;;;3.58;;
2996;SDS011;1508;48.744;9.110;2022-08-01T09:48:19;5.78;;;4.00;;
2996;SDS011;1508;48.744;9.110;2022-08-01T09:51:06;5.53;;;3.80;;
2996;SDS011;1508;48.744;9.110;2022-08-01T09:53:52;5.35;;;4.85;;
2996;SDS011;1508;48.744;9.110;2022-08-01T09:56:38;5.78;;;5.18;;
2996;SDS011;1508;48.744;9.110;2022-08-01T09:59:33;6.30;;;5.70;;
2996;SDS011;1508;48.744;9.110;2022-08-01T10:05:15;6.90;;;5.25;;
2996;SDS011;1508;48.744;9.110;2022-08-01T10:08:02;8.63;;;5.72;;
2996;SDS011;1508;48.744;9.110;2022-08-01T10:11:06;6.68;;;5.25;;
2996;SDS011;1508;48.744;9.110;2022-08-01T10:13:54;6.68;;;5.90;;
2996;SDS011;1508;48.744;9.110;2022-08-01T10:16:42;5.55;;;5.05;;
2996;SDS011;1508;48.744;9.110;2022-08-01T10:19:29;5.45;;;4.95;;
2996;SDS011;1508;48.744;9.110;2022-08-01T10:22:15;5.30;;;4.80;;
2996;SDS011;1508;48.744;9.110;2022-08-01T10:25:04;6.65;;;5.95;;
2996;SDS011;1508;48.744;9.110;2022-08-01T10:27:52;6.82;;;5.93;;
2996;SDS011;1508;48.744;9.110;2022-08-01T10:30:41;6.00;;;5.00;;
2996;SDS011;1508;48.744;9.110;2022-08-01T10:33:27;4.95;;;3.67;;
2996;SDS011;1508;48.744;9.110;2022-08-01T10:36:15;4.18;;;3.85;;
2996;SDS011;1508;48.744;9.110;2022-08-01T10:39:05;4.07;;;3.77;;
2996;SDS011;1508;48.744;9.110;2022-08-01T10:41:51;4.25;;;3.80;;
2996;SDS011;1508;48.744;9.110;2022-08-01T10:44:37;3.47;;;3.17;;
2996;SDS011;1508;48.744;9.110;2022-08-01T10:47:27;5.93;;;3.80;;
2996;SDS011;1508;48.744;9.110;2022-08-01T10:50:42;4.90;;;3.70;;
2996;SDS011;1508;48.744;9.110;2022-08-01T10:53:30;3.70;;;3.30;;
2996;SDS011;1508;48.744;9.110;2022-08-01T10:56:16;4.20;;;3.80;;
2996;SDS011;1508;48.744;9.110;2022-08-01T10:59:03;3.50;;;3.20;;
2996;SDS011;1508;48.744;9.110;2022-08-01T11:01:58;3.60;;;3.03;;
2996;SDS011;1508;48.744;9.110;2022-08-01T11:04:51;4.40;;;3.83;;
2996;SDS011;1508;48.744;9.110;2022-08-01T11:07:48;4.35;;;3.30;;
2996;SDS011;1508;48.744;9.110;2022-08-01T11:10:38;4.35;;;3.70;;
2996;SDS011;1508;48.744;9.110;2022-08-01T11:16:45;4.22;;;3.50;;
2996;SDS011;1508;48.744;9.110;2022-08-01T11:20:03;4.23;;;3.90;;
2996;SDS011;1508;48.744;9.110;2022-08-01T11:28:30;3.60;;;3.30;;
2996;SDS011;1508;48.744;9.110;2022-08-01T11:34:01;3.40;;;2.90;;
2996;SDS011;1508;48.744;9.110;2022-08-01T11:36:47;4.10;;;2.53;;
2996;SDS011;1508;48.744;9.110;2022-08-01T11:39:33;3.50;;;2.55;;
2996;SDS011;1508;48.744;9.110;2022-08-01T11:42:19;3.60;;;2.73;;
2996;SDS011;1508;48.744;9.110;2022-08-01T11:45:05;4.82;;;2.80;;
2996;SDS011;1508;48.744;9.110;2022-08-01T11:47:52;3.65;;;2.60;;
2996;SDS011;1508;48.744;9.110;2022-08-01T11:50:38;3.30;;;2.80;;
2996;SDS011;1508;48.744;9.110;2022-08-01T11:53:24;3.60;;;2.42;;
2996;SDS011;1508;48.744;9.110;2022-08-01T11:56:10;2.30;;;2.10;;
2996;SDS011;1508;48.744;9.110;2022-08-01T11:58:59;4.75;;;2.70;;
2996;SDS011;1508;48.744;9.110;2022-08-01T12:01:45;2.97;;;2.63;;
2996;SDS011;1508;48.744;9.110;2022-08-01T12:04:50;3.50;;;3.10;;
2996;SDS011;1508;48.744;9.110;2022-08-01T12:07:51;4.40;;;2.78;;
2996;SDS011;1508;48.744;9.110;2022-08-01T12:10:38;2.88;;;2.40;;
2996;SDS011;1508;48.744;9.110;2022-08-01T12:13:23;3.90;;;2.30;;
2996;SDS011;1508;48.744;9.110;2022-08-01T12:16:10;2.90;;;2.30;;
2996;SDS011;1508;48.744;9.110;2022-08-01T12:18:56;3.00;;;2.30;;
2996;SDS011;1508;48.744;9.110;2022-08-01T12:21:42;2.88;;;2.67;;
2996;SDS011;1508;48.744;9.110;2022-08-01T12:24:28;3.30;;;2.25;;
2996;SDS011;1508;48.744;9.110;2022-08-01T12:27:23;3.40;;;3.10;;
2996;SDS011;1508;48.744;9.110;2022-08-01T12:30:11;2.80;;;2.50;;
2996;SDS011;1508;48.744;9.110;2022-08-01T12:33:03;4.65;;;2.70;;
2996;SDS011;1508;48.744;9.110;2022-08-01T12:35:49;3.30;;;2.50;;
2996;SDS011;1508;48.744;9.110;2022-08-01T12:38:35;3.88;;;2.92;;
2996;SDS011;1508;48.744;9.110;2022-08-01T12:41:21;4.10;;;3.03;;
2996;SDS011;1508;48.744;9.110;2022-08-01T12:44:13;3.50;;;2.70;;
2996;SDS011;1508;48.744;9.110;2022-08-01T12:47:00;3.28;;;2.42;;
2996;SDS011;1508;48.744;9.110;2022-08-01T12:49:47;4.70;;;2.80;;
2996;SDS011;1508;48.744;9.110;2022-08-01T12:52:34;2.92;;;2.63;;
2996;SDS011;1508;48.744;9.110;2022-08-01T12:55:20;4.40;;;2.50;;
2996;SDS011;1508;48.744;9.110;2022-08-01T12:58:08;3.22;;;2.50;;
2996;SDS011;1508;48.744;9.110;2022-08-01T13:01:03;5.73;;;2.70;;
2996;SDS011;1508;48.744;9.110;2022-08-01T13:04:02;3.05;;;2.70;;
2996;SDS011;1508;48.744;9.110;2022-08-01T13:06:52;2.90;;;2.30;;
2996;SDS011;1508;48.744;9.110;2022-08-01T13:09:48;5.72;;;2.30;;
2996;SDS011;1508;48.744;9.110;2022-08-01T13:12:38;4.38;;;2.25;;
2996;SDS011;1508;48.744;9.110;2022-08-01T13:15:39;2.72;;;2.42;;
2996;SDS011;1508;48.744;9.110;2022-08-01T13:18:29;2.90;;;2.60;;
2996;SDS011;1508;48.744;9.110;2022-08-01T13:21:27;4.32;;;2.30;;
2996;SDS011;1508;48.744;9.110;2022-08-01T13:24:13;3.25;;;2.60;;
2996;SDS011;1508;48.744;9.110;2022-08-01T13:27:00;3.60;;;2.42;;
2996;SDS011;1508;48.744;9.110;2022-08-01T13:29:47;3.22;;;2.60;;
2996;SDS011;1508;48.744;9.110;2022-08-01T13:32:33;3.03;;;2.33;;
2996;SDS011;1508;48.744;9.110;2022-08-01T13:35:19;2.85;;;2.50;;
2996;SDS011;1508;48.744;9.110;2022-08-01T13:38:05;2.72;;;2.40;;
2996;SDS011;1508;48.744;9.110;2022-08-01T13:40:57;2.63;;;2.15;;
2996;SDS011;1508;48.744;9.110;2022-08-01T13:43:43;2.80;;;2.45;;
2996;SDS011;1508;48.744;9.110;2022-08-01T13:46:30;2.97;;;2.30;;
2996;SDS011;1508;48.744;9.110;2022-08-01T13:49:16;3.88;;;2.17;;
2996;SDS011;1508;48.744;9.110;2022-08-01T13:52:02;3.50;;;2.07;;
2996;SDS011;1508;48.744;9.110;2022-08-01T13:54:49;3.80;;;2.20;;
2996;SDS011;1508;48.744;9.110;2022-08-01T13:57:35;5.63;;;2.50;;
2996;SDS011;1508;48.744;9.110;2022-08-01T14:00:21;3.63;;;2.35;;
2996;SDS011;1508;48.744;9.110;2022-08-01T14:03:07;3.90;;;2.50;;
2996;SDS011;1508;48.744;9.110;2022-08-01T14:05:53;3.97;;;2.30;;
2996;SDS011;1508;48.744;9.110;2022-08-01T14:08:38;3.50;;;2.35;;
2996;SDS011;1508;48.744;9.110;2022-08-01T14:11:24;2.97;;;2.10;;
2996;SDS011;1508;48.744;9.110;2022-08-01T14:14:10;3.25;;;2.00;;
2996;SDS011;1508;48.744;9.110;2022-08-01T14:16:56;4.22;;;2.30;;
2996;SDS011;1508;48.744;9.110;2022-08-01T14:19:42;4.20;;;2.70;;
2996;SDS011;1508;48.744;9.110;2022-08-01T14:22:28;5.23;;;2.50;;
2996;SDS011;1508;48.744;9.110;2022-08-01T14:25:14;7.10;;;2.70;;
2996;SDS011;1508;48.744;9.110;2022-08-01T14:28:00;4.00;;;2.60;;
2996;SDS011;1508;48.744;9.110;2022-08-01T14:30:46;3.00;;;2.10;;
2996;SDS011;1508;48.744;9.110;2022-08-01T14:33:32;3.50;;;2.20;;
2996;SDS011;1508;48.744;9.110;2022-08-01T14:36:18;2.35;;;2.10;;
2996;SDS011;1508;48.744;9.110;2022-08-01T14:39:04;4.60;;;2.67;;
2996;SDS011;1508;48.744;9.110;2022-08-01T14:41:50;4.30;;;2.40;;
2996;SDS011;1508;48.744;9.110;2022-08-01T14:44:36;5.18;;;2.13;;
2996;SDS011;1508;48.744;9.110;2022-08-01T14:47:22;2.70;;;2.50;;
2996;SDS011;1508;48.744;9.110;2022-08-01T14:50:09;3.45;;;2.55;;
2996;SDS011;1508;48.744;9.110;2022-08-01T14:52:57;2.90;;;2.20;;
2996;SDS011;1508;48.744;9.110;2022-08-01T14:55:43;4.53;;;2.10;;
2996;SDS011;1508;48.744;9.110;2022-08-01T14:58:29;4.75;;;2.30;;
2996;SDS011;1508;48.744;9.110;2022-08-01T15:01:15;3.00;;;2.45;;
2996;SDS011;1508;48.744;9.110;2022-08-01T15:04:01;3.20;;;2.20;;
2996;SDS011;1508;48.744;9.110;2022-08-01T15:06:47;2.53;;;2.33;;
2996;SDS011;1508;48.744;9.110;2022-08-01T15:09:32;3.30;;;2.58;;
2996;SDS011;1508;48.744;9.110;2022-08-01T15:12:18;2.85;;;2.20;;
2996;SDS011;1508;48.744;9.110;2022-08-01T15:15:04;2.70;;;2.30;;
2996;SDS011;1508;48.744;9.110;2022-08-01T15:17:51;3.20;;;2.30;;
2996;SDS011;1508;48.744;9.110;2022-08-01T15:20:37;3.45;;;2.60;;
2996;SDS011;1508;48.744;9.110;2022-08-01T15:23:23;3.50;;;2.20;;
2996;SDS011;1508;48.744;9.110;2022-08-01T15:26:08;3.67;;;2.55;;
2996;SDS011;1508;48.744;9.110;2022-08-01T15:28:54;5.80;;;2.60;;
2996;SDS011;1508;48.744;9.110;2022-08-01T15:31:40;3.95;;;2.88;;
2996;SDS011;1508;48.744;9.110;2022-08-01T15:34:26;2.55;;;2.08;;
2996;SDS011;1508;48.744;9.110;2022-08-01T15:37:12;2.95;;;2.00;;
2996;SDS011;1508;48.744;9.110;2022-08-01T15:39:58;3.13;;;1.98;;
2996;SDS011;1508;48.744;9.110;2022-08-01T15:42:44;5.55;;;2.20;;
2996;SDS011;1508;48.744;9.110;2022-08-01T15:45:30;4.90;;;2.10;;
2996;SDS011;1508;48.744;9.110;2022-08-01T15:48:16;3.53;;;2.30;;
2996;SDS011;1508;48.744;9.110;2022-08-01T15:51:02;2.97;;;2.20;;
2996;SDS011;1508;48.744;9.110;2022-08-01T15:53:47;5.10;;;2.30;;
2996;SDS011;1508;48.744;9.110;2022-08-01T15:56:33;3.45;;;2.00;;
2996;SDS011;1508;48.744;9.110;2022-08-01T15:59:19;4.45;;;2.40;;
2996;SDS011;1508;48.744;9.110;2022-08-01T16:02:05;2.50;;;2.10;;
2996;SDS011;1508;48.744;9.110;2022-08-01T16:04:51;3.30;;;1.90;;
2996;SDS011;1508;48.744;9.110;2022-08-01T16:07:37;3.15;;;1.80;;
2996;SDS011;1508;48.744;9.110;2022-08-01T16:10:23;3.13;;;1.80;;
2996;SDS011;1508;48.744;9.110;2022-08-01T16:13:09;2.80;;;1.90;;
2996;SDS011;1508;48.744;9.110;2022-08-01T16:15:55;2.80;;;2.00;;
2996;SDS011;1508;48.744;9.110;2022-08-01T16:18:41;2.90;;;1.80;;
2996;SDS011;1508;48.744;9.110;2022-08-01T16:21:27;2.53;;;1.65;;
2996;SDS011;1508;48.744;9.110;2022-08-01T16:24:13;2.83;;;1.80;;
2996;SDS011;1508;48.744;9.110;2022-08-01T16:26:59;2.90;;;1.70;;
2996;SDS011;1508;48.744;9.110;2022-08-01T16:29:45;2.08;;;1.73;;
2996;SDS011;1508;48.744;9.110;2022-08-01T16:32:31;2.58;;;1.80;;
2996;SDS011;1508;48.744;9.110;2022-08-01T16:35:17;1.92;;;1.60;;
2996;SDS011;1508;48.744;9.110;2022-08-01T16:38:03;3.17;;;1.67;;
2996;SDS011;1508;48.744;9.110;2022-08-01T16:40:50;4.50;;;1.90;;
2996;SDS011;1508;48.744;9.110;2022-08-01T16:43:36;2.50;;;1.70;;
2996;SDS011;1508;48.744;9.110;2022-08-01T16:46:23;2.42;;;1.88;;
2996;SDS011;1508;48.744;9.110;2022-08-01T16:49:09;2.38;;;1.60;;
2996;SDS011;1508;48.744;9.110;2022-08-01T16:51:55;2.80;;;1.60;;
2996;SDS011;1508;48.744;9.110;2022-08-01T16:54:41;4.07;;;1.70;;
2996;SDS011;1508;48.744;9.110;2022-08-01T16:57:27;4.30;;;1.73;;
2996;SDS011;1508;48.744;9.110;2022-08-01T17:00:13;1.70;;;1.60;;
2996;SDS011;1508;48.744;9.110;2022-08-01T17:02:59;3.10;;;1.40;;
2996;SDS011;1508;48.744;9.110;2022-08-01T17:05:45;1.90;;;1.50;;
2996;SDS011;1508;48.744;9.110;2022-08-01T17:08:31;2.20;;;1.60;;
2996;SDS011;1508;48.744;9.110;2022-08-01T17:11:17;2.70;;;1.90;;
2996;SDS011;1508;48.744;9.110;2022-08-01T17:14:03;2.00;;;1.40;;
2996;SDS011;1508;48.744;9.110;2022-08-01T17:16:49;3.50;;;1.70;;
2996;SDS011;1508;48.744;9.110;2022-08-01T17:19:35;1.80;;;1.40;;
2996;SDS011;1508;48.744;9.110;2022-08-01T17:22:21;3.10;;;1.40;;
2996;SDS011;1508;48.744;9.110;2022-08-01T17:25:07;3.20;;;1.50;;
2996;SDS011;1508;48.744;9.110;2022-08-01T17:27:53;2.47;;;1.60;;
2996;SDS011;1508;48.744;9.110;2022-08-01T17:30:39;1.90;;;1.50;;
2996;SDS011;1508;48.744;9.110;2022-08-01T17:33:25;1.73;;;1.50;;
2996;SDS011;1508;48.744;9.110;2022-08-01T17:36:11;2.20;;;1.40;;
2996;SDS011;1508;48.744;9.110;2022-08-01T17:38:57;2.72;;;1.60;;
2996;SDS011;1508;48.744;9.110;2022-08-01T17:41:43;2.70;;;1.40;;